sensor_id;sensor_type;location;lat;lon;timestamp;P1;durP1;ratioP1;P2;durP2;ratioP2
19482;SDS011;9882;51.166;6.992;2023-05-15T00:01:10;9.13;;;3.72;;
19482;SDS011;9882;51.166;6.992;2023-05-15T00:03:39;6.30;;;3.42;;
19482;SDS011;9882;51.166;6.992;2023-05-15T00:06:10;7.28;;;3.83;;
19482;SDS011;9882;51.166;6.992;2023-05-15T00:08:38;4.95;;;3.20;;
19482;SDS011;9882;51.166;6.992;2023-05-15T00:11:07;6.63;;;3.63;;
19482;SDS011;9882;51.166;6.992;2023-05-15T00:13:37;7.95;;;3.55;;
19482;SDS011;9882;51.166;6.992;2023-05-15T00:16:06;7.25;;;3.70;;
19482;SDS011;9882;51.166;6.992;2023-05-15T00:18:35;5.75;;;3.30;;
19482;SDS011;9882;51.166;6.992;2023-05-15T00:21:04;5.78;;;3.63;;
19482;SDS011;9882;51.166;6.992;2023-05-15T00:23:32;7.43;;;3.67;;
19482;SDS011;9882;51.166;6.992;2023-05-15T00:26:01;8.30;;;3.70;;
19482;SDS011;9882;51.166;6.992;2023-05-15T00:28:29;8.07;;;3.97;;
19482;SDS011;9882;51.166;6.992;2023-05-15T00:30:59;7.70;;;3.83;;
19482;SDS011;9882;51.166;6.992;2023-05-15T00:33:28;7.72;;;3.78;;
19482;SDS011;9882;51.166;6.992;2023-05-15T00:35:56;10.70;;;4.13;;
19482;SDS011;9882;51.166;6.992;2023-05-15T00:38:25;10.48;;;4.20;;
19482;SDS011;9882;51.166;6.992;2023-05-15T00:40:54;10.27;;;4.30;;
19482;SDS011;9882;51.166;6.992;2023-05-15T00:43:23;8.55;;;3.58;;
19482;SDS011;9882;51.166;6.992;2023-05-15T00:45:54;5.70;;;3.40;;
19482;SDS011;9882;51.166;6.992;2023-05-15T00:48:27;6.90;;;3.63;;
19482;SDS011;9882;51.166;6.992;2023-05-15T00:50:56;8.70;;;3.78;;
19482;SDS011;9882;51.166;6.992;2023-05-15T00:53:26;7.82;;;3.95;;
19482;SDS011;9882;51.166;6.992;2023-05-15T00:55:56;7.22;;;3.80;;
19482;SDS011;9882;51.166;6.992;2023-05-15T00:58:26;8.02;;;3.70;;
19482;SDS011;9882;51.166;6.992;2023-05-15T01:00:56;6.07;;;3.55;;
19482;SDS011;9882;51.166;6.992;2023-05-15T01:03:24;5.60;;;3.22;;
19482;SDS011;9882;51.166;6.992;2023-05-15T01:05:55;7.50;;;3.78;;
19482;SDS011;9882;51.166;6.992;2023-05-15T01:08:25;6.47;;;3.65;;
19482;SDS011;9882;51.166;6.992;2023-05-15T01:10:57;6.10;;;3.33;;
19482;SDS011;9882;51.166;6.992;2023-05-15T01:13:27;4.97;;;3.45;;
19482;SDS011;9882;51.166;6.992;2023-05-15T01:15:56;6.15;;;3.47;;
19482;SDS011;9882;51.166;6.992;2023-05-15T01:18:25;9.48;;;4.03;;
19482;SDS011;9882;51.166;6.992;2023-05-15T01:21:17;8.45;;;4.03;;
19482;SDS011;9882;51.166;6.992;2023-05-15T01:24:15;8.75;;;3.70;;
19482;SDS011;9882;51.166;6.992;2023-05-15T01:27:07;13.65;;;4.38;;
19482;SDS011;9882;51.166;6.992;2023-05-15T01:29:46;9.40;;;3.80;;
19482;SDS011;9882;51.166;6.992;2023-05-15T01:35:11;8.98;;;4.05;;
19482;SDS011;9882;51.166;6.992;2023-05-15T01:37:47;7.97;;;3.70;;
19482;SDS011;9882;51.166;6.992;2023-05-15T01:40:22;9.35;;;3.80;;
19482;SDS011;9882;51.166;6.992;2023-05-15T01:42:54;8.77;;;4.07;;
19482;SDS011;9882;51.166;6.992;2023-05-15T01:45:26;12.57;;;4.57;;
19482;SDS011;9882;51.166;6.992;2023-05-15T01:47:57;8.52;;;4.15;;
19482;SDS011;9882;51.166;6.992;2023-05-15T01:50:27;8.20;;;4.00;;
19482;SDS011;9882;51.166;6.992;2023-05-15T01:52:59;8.88;;;3.92;;
19482;SDS011;9882;51.166;6.992;2023-05-15T01:55:29;10.05;;;4.13;;
19482;SDS011;9882;51.166;6.992;2023-05-15T01:58:01;8.68;;;4.00;;
19482;SDS011;9882;51.166;6.992;2023-05-15T02:00:31;10.10;;;4.32;;
19482;SDS011;9882;51.166;6.992;2023-05-15T02:03:01;10.38;;;4.30;;
19482;SDS011;9882;51.166;6.992;2023-05-15T02:05:32;12.05;;;4.13;;
19482;SDS011;9882;51.166;6.992;2023-05-15T02:08:02;9.60;;;4.38;;
19482;SDS011;9882;51.166;6.992;2023-05-15T02:10:31;8.85;;;4.22;;
19482;SDS011;9882;51.166;6.992;2023-05-15T02:13:01;9.13;;;4.60;;
19482;SDS011;9882;51.166;6.992;2023-05-15T02:15:31;8.38;;;4.10;;
19482;SDS011;9882;51.166;6.992;2023-05-15T02:18:01;12.50;;;5.03;;
19482;SDS011;9882;51.166;6.992;2023-05-15T02:20:29;10.15;;;4.68;;
19482;SDS011;9882;51.166;6.992;2023-05-15T02:22:58;13.20;;;5.32;;
19482;SDS011;9882;51.166;6.992;2023-05-15T02:25:28;10.23;;;5.07;;
19482;SDS011;9882;51.166;6.992;2023-05-15T02:28:05;15.23;;;5.63;;
19482;SDS011;9882;51.166;6.992;2023-05-15T02:30:45;12.07;;;5.40;;
19482;SDS011;9882;51.166;6.992;2023-05-15T02:33:21;15.13;;;5.93;;
19482;SDS011;9882;51.166;6.992;2023-05-15T02:35:55;10.93;;;4.93;;
19482;SDS011;9882;51.166;6.992;2023-05-15T02:38:27;9.38;;;4.55;;
19482;SDS011;9882;51.166;6.992;2023-05-15T02:40:57;8.85;;;4.57;;
19482;SDS011;9882;51.166;6.992;2023-05-15T02:43:33;21.23;;;7.63;;
19482;SDS011;9882;51.166;6.992;2023-05-15T02:46:03;16.88;;;6.07;;
19482;SDS011;9882;51.166;6.992;2023-05-15T02:48:33;12.50;;;5.78;;
19482;SDS011;9882;51.166;6.992;2023-05-15T02:51:04;13.82;;;6.10;;
19482;SDS011;9882;51.166;6.992;2023-05-15T02:53:37;18.10;;;6.65;;
19482;SDS011;9882;51.166;6.992;2023-05-15T02:56:07;18.83;;;7.43;;
19482;SDS011;9882;51.166;6.992;2023-05-15T02:58:37;53.35;;;20.65;;
19482;SDS011;9882;51.166;6.992;2023-05-15T03:01:06;42.83;;;15.45;;
19482;SDS011;9882;51.166;6.992;2023-05-15T03:03:35;30.00;;;11.05;;
19482;SDS011;9882;51.166;6.992;2023-05-15T03:06:03;49.13;;;20.20;;
19482;SDS011;9882;51.166;6.992;2023-05-15T03:08:32;58.08;;;20.77;;
19482;SDS011;9882;51.166;6.992;2023-05-15T03:11:01;40.97;;;15.05;;
19482;SDS011;9882;51.166;6.992;2023-05-15T03:13:29;38.17;;;15.13;;
19482;SDS011;9882;51.166;6.992;2023-05-15T03:15:59;39.75;;;15.57;;
19482;SDS011;9882;51.166;6.992;2023-05-15T03:18:28;57.40;;;22.95;;
19482;SDS011;9882;51.166;6.992;2023-05-15T03:20:56;58.97;;;23.45;;
19482;SDS011;9882;51.166;6.992;2023-05-15T03:23:25;58.33;;;25.50;;
19482;SDS011;9882;51.166;6.992;2023-05-15T03:25:53;45.03;;;17.88;;
19482;SDS011;9882;51.166;6.992;2023-05-15T03:28:22;42.83;;;18.08;;
19482;SDS011;9882;51.166;6.992;2023-05-15T03:30:50;57.83;;;25.08;;
19482;SDS011;9882;51.166;6.992;2023-05-15T03:33:20;49.97;;;21.58;;
19482;SDS011;9882;51.166;6.992;2023-05-15T03:35:49;55.25;;;20.40;;
19482;SDS011;9882;51.166;6.992;2023-05-15T03:38:18;52.55;;;23.27;;
19482;SDS011;9882;51.166;6.992;2023-05-15T03:40:47;57.15;;;24.35;;
19482;SDS011;9882;51.166;6.992;2023-05-15T03:43:16;51.92;;;24.13;;
19482;SDS011;9882;51.166;6.992;2023-05-15T03:45:47;56.65;;;21.52;;
19482;SDS011;9882;51.166;6.992;2023-05-15T03:48:16;57.05;;;23.65;;
19482;SDS011;9882;51.166;6.992;2023-05-15T03:50:46;60.13;;;25.35;;
19482;SDS011;9882;51.166;6.992;2023-05-15T03:53:14;64.90;;;25.08;;
19482;SDS011;9882;51.166;6.992;2023-05-15T03:55:43;45.30;;;19.65;;
19482;SDS011;9882;51.166;6.992;2023-05-15T03:58:11;58.25;;;23.98;;
19482;SDS011;9882;51.166;6.992;2023-05-15T04:00:40;66.93;;;26.08;;
19482;SDS011;9882;51.166;6.992;2023-05-15T04:03:09;45.70;;;20.85;;
19482;SDS011;9882;51.166;6.992;2023-05-15T04:05:38;65.25;;;26.73;;
19482;SDS011;9882;51.166;6.992;2023-05-15T04:08:08;67.07;;;26.83;;
19482;SDS011;9882;51.166;6.992;2023-05-15T04:10:38;85.07;;;27.95;;
19482;SDS011;9882;51.166;6.992;2023-05-15T04:13:06;66.18;;;28.77;;
19482;SDS011;9882;51.166;6.992;2023-05-15T04:15:35;96.05;;;34.03;;
19482;SDS011;9882;51.166;6.992;2023-05-15T04:18:03;95.28;;;35.15;;
19482;SDS011;9882;51.166;6.992;2023-05-15T04:20:32;90.55;;;31.83;;
19482;SDS011;9882;51.166;6.992;2023-05-15T04:23:01;90.28;;;34.60;;
19482;SDS011;9882;51.166;6.992;2023-05-15T04:25:32;62.08;;;27.55;;
19482;SDS011;9882;51.166;6.992;2023-05-15T04:28:01;99.88;;;36.65;;
19482;SDS011;9882;51.166;6.992;2023-05-15T04:30:29;103.13;;;35.80;;
19482;SDS011;9882;51.166;6.992;2023-05-15T04:32:58;68.18;;;25.42;;
19482;SDS011;9882;51.166;6.992;2023-05-15T04:35:27;77.13;;;32.00;;
19482;SDS011;9882;51.166;6.992;2023-05-15T04:37:56;99.32;;;37.47;;
19482;SDS011;9882;51.166;6.992;2023-05-15T04:40:30;66.57;;;26.35;;
19482;SDS011;9882;51.166;6.992;2023-05-15T04:43:00;82.40;;;32.60;;
19482;SDS011;9882;51.166;6.992;2023-05-15T04:45:29;93.50;;;36.88;;
19482;SDS011;9882;51.166;6.992;2023-05-15T04:47:58;108.53;;;37.00;;
19482;SDS011;9882;51.166;6.992;2023-05-15T04:50:26;95.10;;;33.85;;
19482;SDS011;9882;51.166;6.992;2023-05-15T04:52:55;113.40;;;40.25;;
19482;SDS011;9882;51.166;6.992;2023-05-15T04:55:24;98.97;;;37.72;;
19482;SDS011;9882;51.166;6.992;2023-05-15T04:57:53;123.55;;;40.72;;
19482;SDS011;9882;51.166;6.992;2023-05-15T05:00:22;117.22;;;41.25;;
19482;SDS011;9882;51.166;6.992;2023-05-15T05:02:50;127.22;;;44.08;;
19482;SDS011;9882;51.166;6.992;2023-05-15T05:05:19;123.60;;;43.45;;
19482;SDS011;9882;51.166;6.992;2023-05-15T05:07:47;106.88;;;37.30;;
19482;SDS011;9882;51.166;6.992;2023-05-15T05:10:17;92.07;;;35.67;;
19482;SDS011;9882;51.166;6.992;2023-05-15T05:12:47;110.70;;;42.15;;
19482;SDS011;9882;51.166;6.992;2023-05-15T05:15:16;107.43;;;43.53;;
19482;SDS011;9882;51.166;6.992;2023-05-15T05:17:45;105.70;;;44.20;;
19482;SDS011;9882;51.166;6.992;2023-05-15T05:20:13;105.03;;;44.15;;
19482;SDS011;9882;51.166;6.992;2023-05-15T05:22:42;125.45;;;47.97;;
19482;SDS011;9882;51.166;6.992;2023-05-15T05:25:10;117.60;;;45.80;;
19482;SDS011;9882;51.166;6.992;2023-05-15T05:27:39;119.18;;;46.35;;
19482;SDS011;9882;51.166;6.992;2023-05-15T05:30:08;116.18;;;41.95;;
19482;SDS011;9882;51.166;6.992;2023-05-15T05:32:38;114.25;;;41.45;;
19482;SDS011;9882;51.166;6.992;2023-05-15T05:35:07;124.80;;;46.30;;
19482;SDS011;9882;51.166;6.992;2023-05-15T05:37:36;88.55;;;38.53;;
19482;SDS011;9882;51.166;6.992;2023-05-15T05:40:05;100.32;;;40.55;;
19482;SDS011;9882;51.166;6.992;2023-05-15T05:42:35;118.47;;;45.05;;
19482;SDS011;9882;51.166;6.992;2023-05-15T05:45:04;100.93;;;40.97;;
19482;SDS011;9882;51.166;6.992;2023-05-15T05:47:33;110.75;;;46.13;;
19482;SDS011;9882;51.166;6.992;2023-05-15T05:50:03;100.68;;;39.35;;
19482;SDS011;9882;51.166;6.992;2023-05-15T05:52:32;85.28;;;35.47;;
19482;SDS011;9882;51.166;6.992;2023-05-15T05:55:01;89.40;;;36.67;;
19482;SDS011;9882;51.166;6.992;2023-05-15T05:57:29;93.75;;;36.60;;
19482;SDS011;9882;51.166;6.992;2023-05-15T05:59:58;96.43;;;38.90;;
19482;SDS011;9882;51.166;6.992;2023-05-15T06:02:26;105.20;;;39.42;;
19482;SDS011;9882;51.166;6.992;2023-05-15T06:04:55;87.43;;;38.35;;
19482;SDS011;9882;51.166;6.992;2023-05-15T06:07:25;94.93;;;38.38;;
19482;SDS011;9882;51.166;6.992;2023-05-15T06:09:53;89.50;;;36.95;;
19482;SDS011;9882;51.166;6.992;2023-05-15T06:12:22;95.75;;;38.97;;
19482;SDS011;9882;51.166;6.992;2023-05-15T06:14:50;90.93;;;37.28;;
19482;SDS011;9882;51.166;6.992;2023-05-15T06:17:19;93.45;;;39.58;;
19482;SDS011;9882;51.166;6.992;2023-05-15T06:19:47;85.60;;;36.08;;
19482;SDS011;9882;51.166;6.992;2023-05-15T06:22:16;91.57;;;35.53;;
19482;SDS011;9882;51.166;6.992;2023-05-15T06:24:46;74.93;;;33.35;;
19482;SDS011;9882;51.166;6.992;2023-05-15T06:27:14;80.32;;;33.22;;
19482;SDS011;9882;51.166;6.992;2023-05-15T06:29:42;75.03;;;31.90;;
19482;SDS011;9882;51.166;6.992;2023-05-15T06:32:11;67.45;;;28.50;;
19482;SDS011;9882;51.166;6.992;2023-05-15T06:34:40;63.92;;;26.48;;
19482;SDS011;9882;51.166;6.992;2023-05-15T06:37:08;57.17;;;25.83;;
19482;SDS011;9882;51.166;6.992;2023-05-15T06:39:36;56.42;;;25.08;;
19482;SDS011;9882;51.166;6.992;2023-05-15T06:42:06;50.92;;;22.83;;
19482;SDS011;9882;51.166;6.992;2023-05-15T06:44:35;53.03;;;23.73;;
19482;SDS011;9882;51.166;6.992;2023-05-15T06:47:04;57.20;;;23.95;;
19482;SDS011;9882;51.166;6.992;2023-05-15T06:49:32;58.05;;;24.70;;
19482;SDS011;9882;51.166;6.992;2023-05-15T06:52:01;65.90;;;25.10;;
19482;SDS011;9882;51.166;6.992;2023-05-15T06:54:29;69.72;;;24.45;;
19482;SDS011;9882;51.166;6.992;2023-05-15T06:56:58;59.25;;;26.00;;
19482;SDS011;9882;51.166;6.992;2023-05-15T06:59:28;52.53;;;24.20;;
19482;SDS011;9882;51.166;6.992;2023-05-15T07:02:00;57.25;;;22.10;;
19482;SDS011;9882;51.166;6.992;2023-05-15T07:04:28;57.45;;;26.67;;
19482;SDS011;9882;51.166;6.992;2023-05-15T07:06:57;58.38;;;25.92;;
19482;SDS011;9882;51.166;6.992;2023-05-15T07:09:25;54.97;;;25.15;;
19482;SDS011;9882;51.166;6.992;2023-05-15T07:11:54;49.53;;;24.38;;
19482;SDS011;9882;51.166;6.992;2023-05-15T07:14:22;57.15;;;24.60;;
19482;SDS011;9882;51.166;6.992;2023-05-15T07:16:52;57.42;;;24.20;;
19482;SDS011;9882;51.166;6.992;2023-05-15T07:19:21;55.78;;;24.27;;
19482;SDS011;9882;51.166;6.992;2023-05-15T07:21:49;60.50;;;25.95;;
19482;SDS011;9882;51.166;6.992;2023-05-15T07:24:17;54.67;;;23.65;;
19482;SDS011;9882;51.166;6.992;2023-05-15T07:26:46;55.85;;;25.52;;
19482;SDS011;9882;51.166;6.992;2023-05-15T07:29:23;55.33;;;25.25;;
19482;SDS011;9882;51.166;6.992;2023-05-15T07:31:53;59.85;;;27.40;;
19482;SDS011;9882;51.166;6.992;2023-05-15T07:34:21;57.50;;;27.02;;
19482;SDS011;9882;51.166;6.992;2023-05-15T07:36:50;53.00;;;25.33;;
19482;SDS011;9882;51.166;6.992;2023-05-15T07:39:18;62.00;;;26.73;;
19482;SDS011;9882;51.166;6.992;2023-05-15T07:41:47;56.65;;;27.83;;
19482;SDS011;9882;51.166;6.992;2023-05-15T07:44:15;68.82;;;29.48;;
19482;SDS011;9882;51.166;6.992;2023-05-15T07:46:43;61.92;;;26.55;;
19482;SDS011;9882;51.166;6.992;2023-05-15T07:49:13;54.88;;;26.15;;
19482;SDS011;9882;51.166;6.992;2023-05-15T07:51:42;52.33;;;25.35;;
19482;SDS011;9882;51.166;6.992;2023-05-15T07:54:10;64.07;;;29.25;;
19482;SDS011;9882;51.166;6.992;2023-05-15T07:56:39;60.65;;;29.75;;
19482;SDS011;9882;51.166;6.992;2023-05-15T07:59:07;66.57;;;32.53;;
19482;SDS011;9882;51.166;6.992;2023-05-15T08:01:36;65.20;;;30.63;;
19482;SDS011;9882;51.166;6.992;2023-05-15T08:04:05;68.68;;;29.90;;
19482;SDS011;9882;51.166;6.992;2023-05-15T08:06:36;63.50;;;29.55;;
19482;SDS011;9882;51.166;6.992;2023-05-15T08:09:05;65.90;;;31.48;;
19482;SDS011;9882;51.166;6.992;2023-05-15T08:11:33;60.97;;;28.90;;
19482;SDS011;9882;51.166;6.992;2023-05-15T08:14:02;63.75;;;29.17;;
19482;SDS011;9882;51.166;6.992;2023-05-15T08:16:31;62.55;;;25.88;;
19482;SDS011;9882;51.166;6.992;2023-05-15T08:18:59;60.28;;;28.88;;
19482;SDS011;9882;51.166;6.992;2023-05-15T08:21:30;65.85;;;27.90;;
19482;SDS011;9882;51.166;6.992;2023-05-15T08:24:00;58.72;;;27.27;;
19482;SDS011;9882;51.166;6.992;2023-05-15T08:26:29;60.28;;;27.42;;
19482;SDS011;9882;51.166;6.992;2023-05-15T08:28:57;54.42;;;26.38;;
19482;SDS011;9882;51.166;6.992;2023-05-15T08:31:26;50.55;;;24.33;;
19482;SDS011;9882;51.166;6.992;2023-05-15T08:33:54;50.88;;;24.45;;
19482;SDS011;9882;51.166;6.992;2023-05-15T08:36:23;48.92;;;24.52;;
19482;SDS011;9882;51.166;6.992;2023-05-15T08:38:51;46.80;;;22.73;;
19482;SDS011;9882;51.166;6.992;2023-05-15T08:41:24;47.55;;;21.63;;
19482;SDS011;9882;51.166;6.992;2023-05-15T08:44:05;51.88;;;23.58;;
19482;SDS011;9882;51.166;6.992;2023-05-15T08:46:36;51.72;;;24.05;;
19482;SDS011;9882;51.166;6.992;2023-05-15T08:49:07;47.90;;;22.60;;
19482;SDS011;9882;51.166;6.992;2023-05-15T08:51:38;43.40;;;21.63;;
19482;SDS011;9882;51.166;6.992;2023-05-15T08:54:07;46.55;;;21.02;;
19482;SDS011;9882;51.166;6.992;2023-05-15T08:56:37;47.65;;;21.88;;
19482;SDS011;9882;51.166;6.992;2023-05-15T08:59:06;43.85;;;22.00;;
19482;SDS011;9882;51.166;6.992;2023-05-15T09:01:34;44.60;;;19.67;;
19482;SDS011;9882;51.166;6.992;2023-05-15T09:04:03;45.63;;;20.30;;
19482;SDS011;9882;51.166;6.992;2023-05-15T09:06:34;44.58;;;21.05;;
19482;SDS011;9882;51.166;6.992;2023-05-15T09:09:04;41.10;;;19.75;;
19482;SDS011;9882;51.166;6.992;2023-05-15T09:11:32;43.65;;;19.08;;
19482;SDS011;9882;51.166;6.992;2023-05-15T09:14:03;41.10;;;19.17;;
19482;SDS011;9882;51.166;6.992;2023-05-15T09:16:33;37.65;;;18.38;;
19482;SDS011;9882;51.166;6.992;2023-05-15T09:19:01;37.90;;;17.95;;
19482;SDS011;9882;51.166;6.992;2023-05-15T09:21:32;37.30;;;16.92;;
19482;SDS011;9882;51.166;6.992;2023-05-15T09:24:17;39.05;;;18.33;;
19482;SDS011;9882;51.166;6.992;2023-05-15T09:26:59;38.15;;;17.10;;
19482;SDS011;9882;51.166;6.992;2023-05-15T09:29:30;45.33;;;19.05;;
19482;SDS011;9882;51.166;6.992;2023-05-15T09:32:03;42.55;;;17.35;;
19482;SDS011;9882;51.166;6.992;2023-05-15T09:34:33;38.00;;;18.20;;
19482;SDS011;9882;51.166;6.992;2023-05-15T09:37:03;42.97;;;15.40;;
19482;SDS011;9882;51.166;6.992;2023-05-15T09:39:33;35.40;;;16.25;;
19482;SDS011;9882;51.166;6.992;2023-05-15T09:42:08;38.25;;;15.82;;
19482;SDS011;9882;51.166;6.992;2023-05-15T09:44:40;34.47;;;15.75;;
19482;SDS011;9882;51.166;6.992;2023-05-15T09:47:10;39.60;;;16.55;;
19482;SDS011;9882;51.166;6.992;2023-05-15T09:49:42;40.00;;;15.40;;
19482;SDS011;9882;51.166;6.992;2023-05-15T09:52:12;37.40;;;15.80;;
19482;SDS011;9882;51.166;6.992;2023-05-15T09:54:43;34.47;;;15.70;;
19482;SDS011;9882;51.166;6.992;2023-05-15T09:57:14;37.72;;;15.50;;
19482;SDS011;9882;51.166;6.992;2023-05-15T09:59:46;41.70;;;15.23;;
19482;SDS011;9882;51.166;6.992;2023-05-15T10:02:21;34.13;;;14.50;;
19482;SDS011;9882;51.166;6.992;2023-05-15T10:04:53;33.58;;;14.63;;
19482;SDS011;9882;51.166;6.992;2023-05-15T10:07:26;34.00;;;14.30;;
19482;SDS011;9882;51.166;6.992;2023-05-15T10:09:55;32.85;;;13.77;;
19482;SDS011;9882;51.166;6.992;2023-05-15T10:12:24;35.25;;;13.82;;
19482;SDS011;9882;51.166;6.992;2023-05-15T10:14:55;39.42;;;15.10;;
19482;SDS011;9882;51.166;6.992;2023-05-15T10:17:24;34.22;;;14.93;;
19482;SDS011;9882;51.166;6.992;2023-05-15T10:19:56;37.88;;;15.57;;
19482;SDS011;9882;51.166;6.992;2023-05-15T10:22:29;42.70;;;16.17;;
19482;SDS011;9882;51.166;6.992;2023-05-15T10:25:07;31.90;;;13.63;;
19482;SDS011;9882;51.166;6.992;2023-05-15T10:27:40;34.15;;;13.88;;
19482;SDS011;9882;51.166;6.992;2023-05-15T10:30:18;32.97;;;14.77;;
19482;SDS011;9882;51.166;6.992;2023-05-15T10:32:54;32.45;;;13.10;;
19482;SDS011;9882;51.166;6.992;2023-05-15T10:35:23;36.20;;;14.70;;
19482;SDS011;9882;51.166;6.992;2023-05-15T10:37:53;31.90;;;13.18;;
19482;SDS011;9882;51.166;6.992;2023-05-15T10:40:39;30.13;;;12.73;;
19482;SDS011;9882;51.166;6.992;2023-05-15T10:44:32;29.45;;;12.70;;
19482;SDS011;9882;51.166;6.992;2023-05-15T10:47:20;30.27;;;12.75;;
19482;SDS011;9882;51.166;6.992;2023-05-15T10:49:49;42.40;;;15.40;;
19482;SDS011;9882;51.166;6.992;2023-05-15T10:52:17;34.03;;;13.63;;
19482;SDS011;9882;51.166;6.992;2023-05-15T10:58:36;30.63;;;13.40;;
19482;SDS011;9882;51.166;6.992;2023-05-15T11:02:30;29.40;;;12.43;;
19482;SDS011;9882;51.166;6.992;2023-05-15T11:05:05;33.33;;;13.93;;
19482;SDS011;9882;51.166;6.992;2023-05-15T11:07:34;31.05;;;12.52;;
19482;SDS011;9882;51.166;6.992;2023-05-15T11:10:34;29.10;;;11.40;;
19482;SDS011;9882;51.166;6.992;2023-05-15T11:13:05;27.70;;;11.73;;
19482;SDS011;9882;51.166;6.992;2023-05-15T11:15:40;32.92;;;13.55;;
19482;SDS011;9882;51.166;6.992;2023-05-15T11:18:11;26.70;;;11.00;;
19482;SDS011;9882;51.166;6.992;2023-05-15T11:20:40;28.10;;;11.55;;
19482;SDS011;9882;51.166;6.992;2023-05-15T11:23:19;27.50;;;11.70;;
19482;SDS011;9882;51.166;6.992;2023-05-15T11:25:51;31.67;;;11.65;;
19482;SDS011;9882;51.166;6.992;2023-05-15T11:28:21;30.13;;;12.25;;
19482;SDS011;9882;51.166;6.992;2023-05-15T11:30:51;35.03;;;14.60;;
19482;SDS011;9882;51.166;6.992;2023-05-15T11:33:28;32.80;;;13.70;;
19482;SDS011;9882;51.166;6.992;2023-05-15T11:35:58;34.33;;;12.85;;
19482;SDS011;9882;51.166;6.992;2023-05-15T11:38:27;33.33;;;12.85;;
19482;SDS011;9882;51.166;6.992;2023-05-15T11:41:15;31.60;;;11.80;;
19482;SDS011;9882;51.166;6.992;2023-05-15T11:43:45;30.40;;;13.35;;
19482;SDS011;9882;51.166;6.992;2023-05-15T11:46:16;32.30;;;12.88;;
19482;SDS011;9882;51.166;6.992;2023-05-15T11:48:46;24.40;;;10.75;;
19482;SDS011;9882;51.166;6.992;2023-05-15T11:51:15;30.58;;;11.85;;
19482;SDS011;9882;51.166;6.992;2023-05-15T11:53:56;28.38;;;11.77;;
19482;SDS011;9882;51.166;6.992;2023-05-15T11:56:50;29.42;;;11.07;;
19482;SDS011;9882;51.166;6.992;2023-05-15T11:59:38;28.42;;;11.75;;
19482;SDS011;9882;51.166;6.992;2023-05-15T12:02:31;27.25;;;10.93;;
19482;SDS011;9882;51.166;6.992;2023-05-15T12:13:16;27.33;;;10.57;;
19482;SDS011;9882;51.166;6.992;2023-05-15T12:15:45;29.48;;;10.88;;
19482;SDS011;9882;51.166;6.992;2023-05-15T12:18:14;25.90;;;9.52;;
19482;SDS011;9882;51.166;6.992;2023-05-15T12:20:42;26.60;;;11.13;;
19482;SDS011;9882;51.166;6.992;2023-05-15T12:23:13;25.33;;;10.27;;
19482;SDS011;9882;51.166;6.992;2023-05-15T12:25:43;29.50;;;11.05;;
19482;SDS011;9882;51.166;6.992;2023-05-15T12:28:15;28.25;;;11.30;;
19482;SDS011;9882;51.166;6.992;2023-05-15T12:30:45;26.00;;;10.05;;
19482;SDS011;9882;51.166;6.992;2023-05-15T12:33:36;25.88;;;8.23;;
19482;SDS011;9882;51.166;6.992;2023-05-15T12:36:10;17.58;;;6.47;;
19482;SDS011;9882;51.166;6.992;2023-05-15T12:40:05;25.17;;;8.68;;
19482;SDS011;9882;51.166;6.992;2023-05-15T12:42:38;19.48;;;8.00;;
19482;SDS011;9882;51.166;6.992;2023-05-15T12:48:42;18.08;;;6.53;;
19482;SDS011;9882;51.166;6.992;2023-05-15T12:51:15;21.80;;;6.72;;
19482;SDS011;9882;51.166;6.992;2023-05-15T12:53:55;12.85;;;5.40;;
19482;SDS011;9882;51.166;6.992;2023-05-15T12:56:47;18.52;;;6.90;;
19482;SDS011;9882;51.166;6.992;2023-05-15T12:59:15;19.65;;;7.03;;
19482;SDS011;9882;51.166;6.992;2023-05-15T13:01:51;18.73;;;6.45;;
19482;SDS011;9882;51.166;6.992;2023-05-15T13:04:24;18.38;;;6.50;;
19482;SDS011;9882;51.166;6.992;2023-05-15T13:28:44;23.95;;;9.05;;
19482;SDS011;9882;51.166;6.992;2023-05-15T13:31:17;22.67;;;7.88;;
19482;SDS011;9882;51.166;6.992;2023-05-15T13:33:48;25.30;;;7.32;;
19482;SDS011;9882;51.166;6.992;2023-05-15T13:36:47;20.92;;;6.75;;
19482;SDS011;9882;51.166;6.992;2023-05-15T13:42:20;17.88;;;6.88;;
19482;SDS011;9882;51.166;6.992;2023-05-15T13:49:17;28.55;;;10.30;;
19482;SDS011;9882;51.166;6.992;2023-05-15T13:59:19;30.33;;;10.75;;
19482;SDS011;9882;51.166;6.992;2023-05-15T14:02:50;28.98;;;8.60;;
19482;SDS011;9882;51.166;6.992;2023-05-15T14:05:20;21.92;;;7.82;;
19482;SDS011;9882;51.166;6.992;2023-05-15T14:07:55;16.73;;;6.70;;
19482;SDS011;9882;51.166;6.992;2023-05-15T14:10:31;19.98;;;7.40;;
19482;SDS011;9882;51.166;6.992;2023-05-15T14:13:16;20.98;;;7.78;;
19482;SDS011;9882;51.166;6.992;2023-05-15T14:16:19;16.65;;;7.07;;
19482;SDS011;9882;51.166;6.992;2023-05-15T14:19:09;18.58;;;7.45;;
19482;SDS011;9882;51.166;6.992;2023-05-15T14:25:58;33.58;;;11.88;;
19482;SDS011;9882;51.166;6.992;2023-05-15T14:32:17;31.77;;;12.65;;
19482;SDS011;9882;51.166;6.992;2023-05-15T14:34:45;33.00;;;13.75;;
19482;SDS011;9882;51.166;6.992;2023-05-15T14:37:14;34.50;;;14.57;;
19482;SDS011;9882;51.166;6.992;2023-05-15T14:39:42;31.13;;;13.35;;
19482;SDS011;9882;51.166;6.992;2023-05-15T14:42:12;31.77;;;13.85;;
19482;SDS011;9882;51.166;6.992;2023-05-15T14:44:42;27.80;;;12.68;;
19482;SDS011;9882;51.166;6.992;2023-05-15T14:47:11;30.27;;;13.13;;
19482;SDS011;9882;51.166;6.992;2023-05-15T14:49:40;35.53;;;12.35;;
19482;SDS011;9882;51.166;6.992;2023-05-15T14:52:09;29.58;;;12.95;;
19482;SDS011;9882;51.166;6.992;2023-05-15T14:54:37;28.00;;;11.45;;
19482;SDS011;9882;51.166;6.992;2023-05-15T14:57:06;32.35;;;13.57;;
19482;SDS011;9882;51.166;6.992;2023-05-15T14:59:36;29.10;;;12.30;;
19482;SDS011;9882;51.166;6.992;2023-05-15T15:02:05;31.05;;;11.95;;
19482;SDS011;9882;51.166;6.992;2023-05-15T15:04:34;28.02;;;12.65;;
19482;SDS011;9882;51.166;6.992;2023-05-15T15:07:03;30.85;;;13.35;;
19482;SDS011;9882;51.166;6.992;2023-05-15T15:09:32;25.67;;;11.57;;
19482;SDS011;9882;51.166;6.992;2023-05-15T15:12:00;27.38;;;11.77;;
19482;SDS011;9882;51.166;6.992;2023-05-15T15:14:29;32.22;;;12.63;;
19482;SDS011;9882;51.166;6.992;2023-05-15T15:16:59;35.15;;;13.35;;
19482;SDS011;9882;51.166;6.992;2023-05-15T15:19:28;28.83;;;12.23;;
19482;SDS011;9882;51.166;6.992;2023-05-15T15:21:56;33.00;;;11.75;;
19482;SDS011;9882;51.166;6.992;2023-05-15T15:24:25;34.50;;;12.37;;
19482;SDS011;9882;51.166;6.992;2023-05-15T15:26:54;26.45;;;10.27;;
19482;SDS011;9882;51.166;6.992;2023-05-15T15:29:22;30.92;;;11.60;;
19482;SDS011;9882;51.166;6.992;2023-05-15T15:31:54;27.15;;;11.45;;
19482;SDS011;9882;51.166;6.992;2023-05-15T15:34:23;27.13;;;11.35;;
19482;SDS011;9882;51.166;6.992;2023-05-15T15:36:52;27.75;;;11.00;;
19482;SDS011;9882;51.166;6.992;2023-05-15T15:39:20;29.58;;;11.15;;
19482;SDS011;9882;51.166;6.992;2023-05-15T15:41:49;26.85;;;11.82;;
19482;SDS011;9882;51.166;6.992;2023-05-15T15:44:20;28.27;;;12.13;;
19482;SDS011;9882;51.166;6.992;2023-05-15T15:46:51;28.45;;;12.02;;
19482;SDS011;9882;51.166;6.992;2023-05-15T15:49:20;31.85;;;12.27;;
19482;SDS011;9882;51.166;6.992;2023-05-15T15:51:50;32.78;;;12.65;;
19482;SDS011;9882;51.166;6.992;2023-05-15T15:54:18;36.00;;;14.18;;
19482;SDS011;9882;51.166;6.992;2023-05-15T15:56:47;30.85;;;12.80;;
19482;SDS011;9882;51.166;6.992;2023-05-15T15:59:15;29.60;;;12.18;;
19482;SDS011;9882;51.166;6.992;2023-05-15T16:01:44;29.27;;;12.13;;
19482;SDS011;9882;51.166;6.992;2023-05-15T16:04:13;34.92;;;12.43;;
19482;SDS011;9882;51.166;6.992;2023-05-15T16:06:41;34.25;;;15.25;;
19482;SDS011;9882;51.166;6.992;2023-05-15T16:09:11;28.23;;;12.10;;